createdAt,value
2023-05-05T00:00:23.317Z,3.22
2023-05-05T00:02:50.705Z,2.17
2023-05-05T00:05:18.408Z,2.22
2023-05-05T00:07:45.839Z,1.92
2023-05-05T00:10:13.367Z,1.73
2023-05-05T00:12:40.924Z,1.50
2023-05-05T00:15:09.006Z,1.40
2023-05-05T00:17:36.453Z,1.55
2023-05-05T00:20:04.280Z,1.50
2023-05-05T00:22:31.807Z,1.55
2023-05-05T00:24:59.222Z,1.27
2023-05-05T00:27:26.628Z,1.50
2023-05-05T00:29:53.964Z,1.47
2023-05-05T00:32:21.573Z,1.50
2023-05-05T00:34:49.331Z,1.50
2023-05-05T00:37:16.886Z,1.40
2023-05-05T00:39:45.160Z,1.20
2023-05-05T00:44:42.199Z,1.80
2023-05-05T00:47:10.005Z,1.55
2023-05-05T00:49:38.996Z,1.30
2023-05-05T00:52:07.578Z,1.30
2023-05-05T00:54:36.307Z,1.20
2023-05-05T00:57:04.421Z,1.25
2023-05-05T00:59:34.006Z,1.92
2023-05-05T01:02:01.641Z,1.42
2023-05-05T01:04:29.561Z,1.77
2023-05-05T01:07:31.474Z,1.67
2023-05-05T01:10:23.911Z,1.48
2023-05-05T01:13:25.334Z,1.27
2023-05-05T01:16:31.119Z,1.30
2023-05-05T01:19:26.634Z,1.33
2023-05-05T01:22:00.786Z,1.50
2023-05-05T01:24:59.698Z,2.65
2023-05-05T01:27:55.825Z,1.60
2023-05-05T01:31:09.258Z,1.50
2023-05-05T01:33:54.434Z,1.85
2023-05-05T01:36:40.024Z,2.30
2023-05-05T01:39:10.690Z,2.00
2023-05-05T01:41:49.281Z,2.10
2023-05-05T01:44:19.024Z,3.00
2023-05-05T01:46:50.582Z,1.83
2023-05-05T01:49:18.221Z,2.28
2023-05-05T01:51:48.226Z,1.58
2023-05-05T01:54:18.895Z,2.05
2023-05-05T01:56:49.469Z,2.15
2023-05-05T01:59:18.447Z,1.95
2023-05-05T02:01:47.561Z,1.85
2023-05-05T02:04:18.160Z,1.88
2023-05-05T02:06:47.718Z,2.22
2023-05-05T02:09:16.298Z,2.22
2023-05-05T02:11:44.069Z,1.77
2023-05-05T02:14:13.047Z,2.05
2023-05-05T02:16:42.779Z,2.13
2023-05-05T02:19:12.534Z,1.42
2023-05-05T02:21:41.273Z,1.90
2023-05-05T02:24:09.130Z,1.73
2023-05-05T02:26:40.887Z,1.60
2023-05-05T02:29:18.173Z,2.28
2023-05-05T02:31:54.218Z,1.90
2023-05-05T02:34:28.449Z,1.80
2023-05-05T02:37:03.313Z,1.70
2023-05-05T02:39:45.533Z,1.90
2023-05-05T02:42:20.729Z,1.90
2023-05-05T02:44:51.656Z,2.28
2023-05-05T02:47:20.974Z,2.17
2023-05-05T02:49:50.215Z,2.17
2023-05-05T02:52:17.557Z,2.33
2023-05-05T02:57:20.989Z,2.40
2023-05-05T03:00:13.958Z,2.72
2023-05-05T03:03:14.281Z,2.47
2023-05-05T03:06:00.995Z,2.58
2023-05-05T03:09:01.681Z,2.38
2023-05-05T03:14:12.141Z,2.78
2023-05-05T03:16:43.889Z,2.35
2023-05-05T03:19:17.415Z,2.50
2023-05-05T03:21:46.525Z,2.10
2023-05-05T03:24:21.078Z,2.50
2023-05-05T03:26:57.826Z,2.60
2023-05-05T03:29:31.521Z,2.00
2023-05-05T03:32:01.140Z,2.08
2023-05-05T03:34:29.754Z,1.90
2023-05-05T03:36:58.586Z,1.73
2023-05-05T03:39:25.956Z,1.90
2023-05-05T03:41:53.671Z,1.85
2023-05-05T03:44:22.253Z,1.92
2023-05-05T03:46:49.716Z,2.00
2023-05-05T03:49:18.329Z,2.35
2023-05-05T03:51:47.617Z,2.10
2023-05-05T03:54:15.540Z,2.25
2023-05-05T03:56:43.139Z,2.70
2023-05-05T03:59:11.906Z,2.60
2023-05-05T04:01:39.535Z,3.05
2023-05-05T04:04:06.827Z,4.10
2023-05-05T04:06:34.110Z,3.58
2023-05-05T04:09:01.979Z,3.45
2023-05-05T04:11:29.841Z,3.60
2023-05-05T04:13:57.938Z,4.18
2023-05-05T04:16:27.073Z,3.55
2023-05-05T04:18:55.536Z,3.85
2023-05-05T04:21:22.790Z,3.80
2023-05-05T04:23:50.059Z,4.03
2023-05-05T04:26:17.368Z,2.90
2023-05-05T04:28:46.171Z,3.03
2023-05-05T04:31:15.074Z,2.72
2023-05-05T04:33:43.855Z,3.08
2023-05-05T04:36:11.886Z,2.40
2023-05-05T04:38:39.550Z,3.00
2023-05-05T04:41:07.162Z,2.45
2023-05-05T04:43:36.408Z,2.55
2023-05-05T04:46:04.036Z,2.50
2023-05-05T04:48:34.509Z,2.90
2023-05-05T04:51:10.582Z,2.38
2023-05-05T04:53:38.246Z,2.63
2023-05-05T04:56:05.809Z,2.53
2023-05-05T04:58:33.152Z,1.95
2023-05-05T05:01:00.451Z,2.53
2023-05-05T05:03:27.875Z,1.65
2023-05-05T05:05:55.367Z,1.93
2023-05-05T05:08:22.759Z,2.60
2023-05-05T05:10:50.067Z,1.85
2023-05-05T05:13:18.703Z,2.20
2023-05-05T05:15:47.552Z,2.13
2023-05-05T05:18:15.112Z,2.17
2023-05-05T05:20:42.671Z,1.93
2023-05-05T05:23:10.011Z,2.08
2023-05-05T05:25:42.974Z,1.92
2023-05-05T05:28:11.508Z,1.63
2023-05-05T05:30:44.610Z,1.67
2023-05-05T05:33:12.521Z,1.65
2023-05-05T05:38:09.250Z,1.50
2023-05-05T05:40:36.642Z,1.60
2023-05-05T05:43:04.381Z,2.90
2023-05-05T05:45:32.769Z,2.30
2023-05-05T05:48:00.212Z,1.95
2023-05-05T05:50:28.821Z,1.80
2023-05-05T05:52:57.389Z,1.90
2023-05-05T05:55:25.526Z,1.80
2023-05-05T05:57:54.102Z,1.63
2023-05-05T06:00:21.591Z,1.40
2023-05-05T06:02:55.961Z,1.42
2023-05-05T06:05:27.067Z,2.08
2023-05-05T06:07:54.888Z,2.00
2023-05-05T06:10:27.859Z,1.80
2023-05-05T06:13:03.851Z,1.95
2023-05-05T06:15:32.858Z,1.40
2023-05-05T06:18:02.123Z,1.42
2023-05-05T06:20:29.595Z,2.37
2023-05-05T06:22:56.886Z,1.50
2023-05-05T06:25:25.700Z,1.40
2023-05-05T06:27:53.200Z,1.50
2023-05-05T06:30:21.753Z,1.60
2023-05-05T06:32:49.076Z,1.70
2023-05-05T06:35:16.434Z,1.65
2023-05-05T06:37:44.442Z,1.60
2023-05-05T06:40:12.281Z,1.98
2023-05-05T06:42:39.582Z,1.65
2023-05-05T06:45:10.141Z,2.10
2023-05-05T06:47:38.898Z,2.08
2023-05-05T06:50:08.829Z,2.13
2023-05-05T06:52:36.336Z,2.22
2023-05-05T06:55:04.644Z,2.13
2023-05-05T06:57:31.876Z,2.40
2023-05-05T06:59:59.196Z,2.17
2023-05-05T07:02:26.960Z,2.13
2023-05-05T07:04:55.647Z,2.47
2023-05-05T07:07:23.061Z,2.30
2023-05-05T07:09:50.340Z,1.38
2023-05-05T07:12:17.637Z,1.83
2023-05-05T07:14:46.269Z,2.35
2023-05-05T07:17:13.513Z,2.50
2023-05-05T07:19:40.773Z,1.70
2023-05-05T07:22:08.047Z,1.67
2023-05-05T07:24:35.276Z,1.73
2023-05-05T07:27:02.754Z,2.10
2023-05-05T07:29:30.011Z,1.90
2023-05-05T07:31:57.375Z,2.55
2023-05-05T07:34:24.647Z,2.00
2023-05-05T07:36:51.975Z,2.20
2023-05-05T07:39:21.227Z,1.67
2023-05-05T07:41:48.444Z,1.85
2023-05-05T07:44:16.163Z,2.70
2023-05-05T07:46:43.365Z,2.00
2023-05-05T07:49:10.672Z,1.55
2023-05-05T07:51:38.062Z,2.00
2023-05-05T07:54:06.723Z,1.70
2023-05-05T07:56:34.059Z,1.95
2023-05-05T07:59:01.614Z,1.92
2023-05-05T08:01:28.893Z,2.10
2023-05-05T08:03:56.338Z,1.83
2023-05-05T08:06:25.105Z,2.53
2023-05-05T08:08:53.579Z,2.22
2023-05-05T08:13:49.137Z,1.80
2023-05-05T08:16:16.510Z,1.30
2023-05-05T08:18:44.073Z,1.35
2023-05-05T08:21:11.777Z,1.83
2023-05-05T08:23:39.718Z,1.83
2023-05-05T08:26:07.504Z,1.58
2023-05-05T08:28:36.898Z,2.20
2023-05-05T08:31:05.943Z,1.95
2023-05-05T08:33:34.223Z,1.75
2023-05-05T08:36:01.789Z,2.25
2023-05-05T08:38:29.308Z,1.70
2023-05-05T08:40:56.849Z,1.70
2023-05-05T08:43:24.404Z,1.63
2023-05-05T08:45:52.221Z,1.30
2023-05-05T08:48:23.280Z,1.38
2023-05-05T08:51:01.370Z,1.40
2023-05-05T08:53:55.709Z,1.48
2023-05-05T08:56:29.920Z,2.72
2023-05-05T08:58:57.934Z,2.10
2023-05-05T09:01:26.371Z,2.28
2023-05-05T09:03:54.533Z,1.70
2023-05-05T09:06:23.597Z,1.55
2023-05-05T09:08:51.434Z,1.52
2023-05-05T09:11:19.109Z,1.52
2023-05-05T09:13:48.734Z,1.80
2023-05-05T09:16:16.559Z,1.70
2023-05-05T09:18:45.704Z,2.40
2023-05-05T09:21:24.971Z,2.05
2023-05-05T09:24:15.661Z,1.42
2023-05-05T09:26:46.016Z,1.30
2023-05-05T09:29:23.434Z,1.10
2023-05-05T09:32:08.530Z,1.30
2023-05-05T09:34:37.362Z,1.10
2023-05-05T09:37:06.262Z,1.50
2023-05-05T09:39:33.986Z,1.70
2023-05-05T09:42:03.201Z,1.70
2023-05-05T09:44:38.254Z,1.67
2023-05-05T09:47:14.826Z,1.50
2023-05-05T09:49:59.052Z,1.70
2023-05-05T09:52:26.520Z,1.70
2023-05-05T09:54:58.505Z,1.47
2023-05-05T09:57:28.824Z,1.67
2023-05-05T10:00:02.270Z,1.85
2023-05-05T10:02:38.924Z,2.10
2023-05-05T10:05:10.185Z,1.60
2023-05-05T10:07:39.461Z,1.70
2023-05-05T10:10:13.350Z,1.30
2023-05-05T10:12:41.430Z,1.50
2023-05-05T10:15:11.653Z,1.60
2023-05-05T10:18:02.439Z,1.30
2023-05-05T10:20:36.530Z,1.40
2023-05-05T10:23:08.366Z,1.38
2023-05-05T10:25:42.724Z,1.10
2023-05-05T10:28:16.782Z,1.60
2023-05-05T10:30:49.360Z,1.88
2023-05-05T10:35:57.433Z,1.25
2023-05-05T10:38:36.621Z,1.90
2023-05-05T10:41:04.582Z,1.67
2023-05-05T10:43:32.175Z,1.85
2023-05-05T10:46:00.744Z,1.45
2023-05-05T10:49:03.552Z,1.40
2023-05-05T10:52:18.890Z,1.35
2023-05-05T10:54:51.489Z,1.30
2023-05-05T10:57:25.823Z,1.92
2023-05-05T10:59:53.276Z,1.50
2023-05-05T11:02:30.621Z,1.60
2023-05-05T11:05:23.419Z,1.75
2023-05-05T11:07:52.166Z,1.40
2023-05-05T11:10:21.209Z,1.90
2023-05-05T11:13:02.758Z,2.38
2023-05-05T11:15:30.483Z,1.60
2023-05-05T11:17:59.462Z,1.58
2023-05-05T11:20:43.614Z,1.33
2023-05-05T11:23:10.982Z,1.63
2023-05-05T11:25:41.237Z,1.45
2023-05-05T11:28:10.680Z,1.52
2023-05-05T11:30:59.719Z,1.40
2023-05-05T11:33:39.610Z,2.03
2023-05-05T11:36:12.687Z,2.10
2023-05-05T11:39:29.692Z,1.80
2023-05-05T11:42:26.282Z,1.50
2023-05-05T11:44:54.922Z,2.10
2023-05-05T11:47:22.352Z,2.17
2023-05-05T11:49:50.177Z,1.98
2023-05-05T11:52:17.990Z,1.88
2023-05-05T11:54:48.279Z,1.63
2023-05-05T11:57:21.168Z,1.27
2023-05-05T12:00:08.512Z,1.35
2023-05-05T12:02:41.724Z,1.45
2023-05-05T12:05:09.299Z,1.97
2023-05-05T12:07:36.986Z,1.40
2023-05-05T12:10:04.933Z,1.50
2023-05-05T12:12:40.810Z,1.20
2023-05-05T12:15:09.733Z,1.60
2023-05-05T12:17:40.245Z,1.80
2023-05-05T12:20:09.943Z,1.20
2023-05-05T12:22:38.384Z,1.70
2023-05-05T12:25:08.232Z,2.58
2023-05-05T12:27:36.001Z,1.65
2023-05-05T12:30:16.766Z,1.65
2023-05-05T12:32:45.796Z,1.52
2023-05-05T12:35:14.155Z,1.90
2023-05-05T12:37:43.176Z,1.70
2023-05-05T12:43:29.823Z,1.55
2023-05-05T12:46:08.559Z,1.90
2023-05-05T12:48:39.150Z,1.60
2023-05-05T12:51:16.433Z,1.50
2023-05-05T12:53:45.816Z,1.90
2023-05-05T12:56:42.075Z,1.48
2023-05-05T12:59:22.284Z,1.25
2023-05-05T13:01:51.698Z,1.65
2023-05-05T13:04:24.440Z,1.35
2023-05-05T13:07:10.814Z,1.20
2023-05-05T13:09:38.827Z,1.40
2023-05-05T13:12:14.147Z,1.23
2023-05-05T13:14:42.122Z,1.13
2023-05-05T13:19:46.200Z,1.30
2023-05-05T13:22:14.410Z,1.33
2023-05-05T13:24:50.651Z,1.45
2023-05-05T13:27:20.763Z,2.00
2023-05-05T13:29:48.282Z,1.30
2023-05-05T13:32:15.801Z,1.00
2023-05-05T13:34:44.308Z,1.20
2023-05-05T13:37:12.117Z,1.10
2023-05-05T13:39:39.657Z,0.90
2023-05-05T13:42:07.101Z,1.17
2023-05-05T13:44:35.420Z,1.10
2023-05-05T13:49:30.434Z,1.30
2023-05-05T13:51:58.778Z,1.20
2023-05-05T13:56:53.619Z,1.10
2023-05-05T13:59:21.213Z,1.47
2023-05-05T14:01:49.010Z,1.30
2023-05-05T14:04:16.409Z,0.95
2023-05-05T14:06:43.848Z,1.33
2023-05-05T14:09:11.301Z,1.27
2023-05-05T14:11:38.696Z,1.77
2023-05-05T14:14:06.388Z,1.30
2023-05-05T14:16:34.150Z,1.48
2023-05-05T14:19:01.796Z,1.25
2023-05-05T14:21:29.447Z,1.63
2023-05-05T14:23:56.958Z,1.40
2023-05-05T14:26:24.485Z,1.50
2023-05-05T14:28:51.805Z,2.05
2023-05-05T14:31:19.316Z,1.30
2023-05-05T14:33:46.800Z,1.70
2023-05-05T14:36:14.662Z,1.60
2023-05-05T14:38:43.239Z,1.60
2023-05-05T14:41:11.200Z,1.60
2023-05-05T14:43:38.761Z,1.65
2023-05-05T14:46:07.508Z,1.40
2023-05-05T14:48:35.301Z,1.35
2023-05-05T14:51:02.972Z,1.85
2023-05-05T14:53:30.543Z,1.40
2023-05-05T14:55:57.983Z,1.42
2023-05-05T14:58:25.448Z,1.90
2023-05-05T15:00:53.017Z,1.52
2023-05-05T15:03:21.034Z,1.40
2023-05-05T15:05:48.716Z,1.48
2023-05-05T15:08:18.841Z,1.85
2023-05-05T15:10:46.726Z,1.50
2023-05-05T15:13:14.582Z,1.73
2023-05-05T15:15:41.988Z,1.58
2023-05-05T15:18:09.431Z,1.40
2023-05-05T15:20:36.851Z,1.20
2023-05-05T15:23:04.476Z,1.27
2023-05-05T15:25:31.822Z,1.50
2023-05-05T15:28:00.973Z,1.65
2023-05-05T15:30:28.913Z,1.77
2023-05-05T15:32:56.639Z,1.73
2023-05-05T15:35:25.732Z,1.58
2023-05-05T15:37:54.553Z,1.60
2023-05-05T15:40:22.484Z,1.42
2023-05-05T15:42:52.900Z,1.52
2023-05-05T15:45:20.276Z,1.33
2023-05-05T15:47:48.301Z,2.57
2023-05-05T15:50:16.387Z,1.88
2023-05-05T15:52:43.767Z,1.70
2023-05-05T15:55:12.298Z,1.50
2023-05-05T15:57:40.540Z,1.42
2023-05-05T16:00:09.648Z,1.23
2023-05-05T16:02:38.421Z,1.65
2023-05-05T16:05:06.922Z,1.60
2023-05-05T16:07:34.688Z,1.70
2023-05-05T16:10:02.346Z,2.43
2023-05-05T16:12:31.692Z,1.95
2023-05-05T16:14:59.255Z,1.80
2023-05-05T16:17:26.767Z,1.70
2023-05-05T16:19:54.183Z,1.57
2023-05-05T16:22:21.586Z,1.37
2023-05-05T16:24:49.050Z,1.30
2023-05-05T16:27:16.797Z,1.50
2023-05-05T16:29:44.212Z,1.58
2023-05-05T16:32:12.487Z,1.40
2023-05-05T16:37:07.207Z,1.77
2023-05-05T16:39:40.275Z,1.63
2023-05-05T16:42:08.167Z,1.63
2023-05-05T16:44:35.807Z,1.85
2023-05-05T16:47:03.237Z,1.40
2023-05-05T16:49:30.945Z,2.00
2023-05-05T16:51:58.671Z,1.73
2023-05-05T16:54:26.301Z,1.40
2023-05-05T16:56:54.031Z,1.60
2023-05-05T17:01:49.325Z,1.90
2023-05-05T17:04:17.228Z,2.70
2023-05-05T17:06:44.785Z,2.60
2023-05-05T17:09:12.202Z,2.10
2023-05-05T17:11:39.876Z,2.10
2023-05-05T17:14:07.274Z,2.37
2023-05-05T17:16:34.820Z,1.90
2023-05-05T17:19:02.356Z,2.10
2023-05-05T17:21:30.088Z,1.80
2023-05-05T17:23:57.636Z,2.10
2023-05-05T17:26:25.478Z,2.70
2023-05-05T17:28:52.907Z,2.58
2023-05-05T17:31:20.381Z,2.50
2023-05-05T17:33:48.325Z,1.83
2023-05-05T17:36:15.892Z,2.20
2023-05-05T17:38:43.311Z,2.00
2023-05-05T17:41:10.765Z,1.90
2023-05-05T17:43:38.146Z,1.83
2023-05-05T17:46:06.161Z,1.70
2023-05-05T17:48:33.660Z,1.90
2023-05-05T17:51:01.353Z,2.13
2023-05-05T17:53:28.750Z,1.80
2023-05-05T17:55:56.361Z,2.03
2023-05-05T17:58:23.943Z,1.90
2023-05-05T18:00:51.499Z,1.77
2023-05-05T18:03:19.032Z,1.83
2023-05-05T18:05:46.695Z,2.30
2023-05-05T18:08:14.143Z,3.38
2023-05-05T18:10:41.681Z,4.30
2023-05-05T18:13:09.192Z,2.63
2023-05-05T18:15:36.791Z,2.60
2023-05-05T18:18:04.503Z,1.70
2023-05-05T18:20:32.020Z,1.77
2023-05-05T18:22:59.417Z,2.10
2023-05-05T18:25:26.730Z,2.08
2023-05-05T18:27:54.197Z,2.20
2023-05-05T18:30:21.839Z,2.00
2023-05-05T18:32:49.609Z,2.30
2023-05-05T18:35:17.438Z,2.53
2023-05-05T18:37:44.848Z,2.05
2023-05-05T18:40:12.846Z,2.70
2023-05-05T18:42:40.279Z,3.03
2023-05-05T18:45:10.858Z,3.50
2023-05-05T18:47:39.559Z,3.70
2023-05-05T18:50:08.631Z,3.65
2023-05-05T18:52:36.314Z,4.78
2023-05-05T18:55:04.226Z,4.75
2023-05-05T18:57:33.586Z,3.38
2023-05-05T19:00:01.321Z,3.30
2023-05-05T19:02:33.617Z,3.20
2023-05-05T19:05:01.313Z,3.20
2023-05-05T19:10:17.908Z,4.03
2023-05-05T19:12:45.351Z,3.60
2023-05-05T19:15:13.527Z,2.93
2023-05-05T19:17:41.232Z,3.25
2023-05-05T19:20:09.534Z,3.30
2023-05-05T19:22:38.297Z,3.47
2023-05-05T19:25:06.250Z,3.03
2023-05-05T19:27:34.177Z,3.72
2023-05-05T19:30:01.637Z,3.47
2023-05-05T19:32:33.004Z,3.13
2023-05-05T19:35:00.521Z,3.20
2023-05-05T19:37:28.117Z,3.17
2023-05-05T19:39:57.704Z,3.72
2023-05-05T19:42:25.188Z,2.90
2023-05-05T19:44:52.534Z,3.00
2023-05-05T19:47:20.045Z,3.73
2023-05-05T19:49:47.421Z,2.97
2023-05-05T19:52:14.901Z,2.90
2023-05-05T19:54:43.594Z,3.17
2023-05-05T19:57:11.117Z,4.78
2023-05-05T19:59:38.546Z,4.37
2023-05-05T20:02:06.118Z,3.50
2023-05-05T20:04:33.602Z,3.27
2023-05-05T20:07:01.490Z,4.05
2023-05-05T20:09:29.242Z,3.92
2023-05-05T20:11:59.476Z,4.35
2023-05-05T20:14:27.044Z,3.60
2023-05-05T20:16:54.591Z,3.20
2023-05-05T20:19:22.127Z,3.33
2023-05-05T20:21:49.637Z,3.67
2023-05-05T20:24:17.602Z,4.43
2023-05-05T20:26:45.357Z,4.05
2023-05-05T20:29:14.848Z,4.10
2023-05-05T20:31:42.707Z,4.47
2023-05-05T20:34:10.325Z,4.13
2023-05-05T20:36:38.120Z,4.30
2023-05-05T20:39:05.893Z,4.25
2023-05-05T20:41:33.386Z,3.47
2023-05-05T20:44:00.932Z,4.15
2023-05-05T20:46:28.492Z,3.88
2023-05-05T20:48:56.213Z,3.70
2023-05-05T20:51:23.594Z,3.45
2023-05-05T20:53:51.462Z,3.50
2023-05-05T20:56:18.917Z,2.60
2023-05-05T20:58:46.371Z,2.37
2023-05-05T21:01:14.025Z,2.00
2023-05-05T21:03:41.661Z,1.60
2023-05-05T21:06:09.050Z,1.98
2023-05-05T21:08:36.731Z,2.10
2023-05-05T21:11:10.110Z,2.13
2023-05-05T21:13:37.606Z,1.90
2023-05-05T21:16:05.595Z,2.10
2023-05-05T21:18:33.216Z,2.53
2023-05-05T21:21:00.678Z,2.53
2023-05-05T21:23:28.088Z,2.08
2023-05-05T21:25:55.681Z,2.37
2023-05-05T21:28:23.147Z,2.88
2023-05-05T21:33:23.569Z,2.70
2023-05-05T21:35:51.006Z,2.25
2023-05-05T21:38:18.417Z,2.30
2023-05-05T21:40:45.897Z,2.07
2023-05-05T21:43:13.443Z,1.60
2023-05-05T21:45:40.901Z,1.40
2023-05-05T21:48:08.568Z,1.70
2023-05-05T21:50:37.310Z,1.65
2023-05-05T21:53:04.842Z,1.60
2023-05-05T21:55:32.152Z,1.73
2023-05-05T21:57:59.553Z,1.60
2023-05-05T22:00:26.948Z,1.50
2023-05-05T22:02:54.441Z,1.47
2023-05-05T22:05:22.040Z,1.50
2023-05-05T22:07:49.474Z,1.40
2023-05-05T22:10:17.019Z,1.60
2023-05-05T22:12:44.722Z,1.60
2023-05-05T22:15:35.827Z,1.48
2023-05-05T22:18:13.150Z,1.40
2023-05-05T22:20:40.754Z,1.10
2023-05-05T22:23:08.239Z,1.45
2023-05-05T22:25:35.945Z,1.27
2023-05-05T22:28:03.547Z,1.13
2023-05-05T22:30:31.017Z,1.33
2023-05-05T22:32:58.557Z,1.70
2023-05-05T22:35:25.994Z,1.20
2023-05-05T22:37:53.400Z,1.45
2023-05-05T22:40:20.896Z,1.80
2023-05-05T22:42:48.561Z,1.30
2023-05-05T22:45:15.895Z,1.63
2023-05-05T22:47:43.408Z,1.30
2023-05-05T22:50:11.437Z,1.30
2023-05-05T22:52:38.928Z,1.60
2023-05-05T22:55:06.703Z,1.30
2023-05-05T22:57:35.846Z,1.30
2023-05-05T23:00:05.577Z,1.60
2023-05-05T23:02:36.179Z,1.40
2023-05-05T23:05:04.211Z,1.50
2023-05-05T23:07:33.572Z,1.30
2023-05-05T23:10:00.993Z,1.60
2023-05-05T23:12:31.329Z,1.58
2023-05-05T23:14:58.748Z,1.63
2023-05-05T23:17:26.188Z,1.60
2023-05-05T23:19:53.765Z,1.52
2023-05-05T23:22:21.213Z,1.63
2023-05-05T23:24:48.655Z,1.63
2023-05-05T23:27:16.021Z,1.60
2023-05-05T23:29:43.380Z,1.50
2023-05-05T23:32:10.890Z,1.50
2023-05-05T23:34:38.435Z,1.45
2023-05-05T23:37:06.446Z,1.40
2023-05-05T23:39:34.865Z,1.35
2023-05-05T23:44:29.570Z,1.38
2023-05-05T23:46:57.089Z,1.20
2023-05-05T23:49:26.556Z,1.33
2023-05-05T23:51:54.020Z,1.38
2023-05-05T23:54:21.619Z,1.20
2023-05-05T23:56:49.053Z,1.42
2023-05-05T23:59:16.509Z,1.40
